KTQE

Tekamah Municipal Airport

Tekamah, Nebraska, USA
METAR KTQE 100554Z AUTO 25005KT 9SM CLR M12/M13 A3034 RMK AO2 SLP287 I1000 I6000 T11221133 11061 21122 410221122 55004
Observed Flight Rules
Dec-10 @ 05:54 UTC (34 minutes ago) Visual Flight Rules
Wind Visibility Clouds
250° at 5 knots 9 miles
  • Clear skies
Temperatures Readings
Current -12°C / 10°F
Dewpoint -13°C / 9°F
Humidity 92%
Altimeter 30.34" Hg
Pressure 1028.7 hPa
Elevation 312
METAR KTQE 100554Z AUTO 25005KT 9SM CLR M12/M13 A3034 RMK AO2 SLP287 I1000 I6000 T11221133 11061 21122 410221122 55004
Observed Flight Rules
Dec-10 @ 05:54 UTC
(34 minutes ago)
VFR
Wind Visibility
250° at 5 knots 9 miles
Clouds
  • Clear skies
Temperature Dewpoint
-12°C / 10°F -13°C / 9°F
Humidity Altimeter Pressure
92% 30.34" Hg 1028.7 hPa